Time,TemperatureF,DewpointF,PressureIn,WindDirection,WindDirectionDegrees,WindSpeedMPH,WindSpeedGustMPH,Humidity,HourlyPrecipIn,Conditions,Clouds,dailyrainin,SoftwareType,DateUTC
2013-07-05 00:00:00,54.1,50.0,30.30,West,265,2.0,4.0,86,0.00,CLR,CLR,0.00,WeatherDisplay:10.37,2013-07-04 23:00:00,
2013-07-05 00:10:00,53.6,49.5,30.32,West,279,1.0,4.0,86,0.00,CLR,CLR,0.00,WeatherDisplay:10.37,2013-07-04 23:10:00,
2013-07-05 00:20:00,53.4,49.6,30.32,West,261,0.0,1.0,87,0.00,CLR,CLR,0.00,WeatherDisplay:10.37,2013-07-04 23:20:00,
2013-07-05 00:30:00,53.2,49.5,30.32,WSW,255,1.0,2.0,87,0.00,CLR,CLR,0.00,WeatherDisplay:10.37,2013-07-04 23:30:00,
2013-07-05 00:40:00,52.9,49.1,30.32,West,264,0.0,2.0,87,0.00,CLR,CLR,0.00,WeatherDisplay:10.37,2013-07-04 23:40:00,
2013-07-05 00:50:00,52.3,48.5,30.33,WSW,244,0.0,1.0,87,0.00,CLR,CLR,0.00,WeatherDisplay:10.37,2013-07-04 23:50:00,
2013-07-05 01:00:00,51.4,47.7,30.33,WSW,248,0.0,0.0,87,0.00,CLR,CLR,0.00,WeatherDisplay:10.37,2013-07-05 00:00:00,
2013-07-05 01:10:00,50.7,47.3,30.33,WSW,248,0.0,0.0,88,0.00,CLR,CLR,0.00,WeatherDisplay:10.37,2013-07-05 00:10:00,
2013-07-05 01:20:00,50.2,46.8,30.33,WSW,248,0.0,0.0,88,0.00,CLR,CLR,0.00,WeatherDisplay:10.37,2013-07-05 00:20:00,
2013-07-05 01:30:00,50.5,47.7,30.33,WSW,248,0.0,0.0,90,0.00,CLR,CLR,0.00,WeatherDisplay:10.37,2013-07-05 00:30:00,
2013-07-05 01:40:00,51.0,48.5,30.33,WSW,248,0.0,1.0,91,0.00,CLR,CLR,0.00,WeatherDisplay:10.37,2013-07-05 00:40:00,
2013-07-05 01:50:00,51.2,48.7,30.33,WSW,246,0.0,3.0,91,0.00,CLR,CLR,0.00,WeatherDisplay:10.37,2013-07-05 00:50:00,
2013-07-05 02:00:00,51.4,49.2,30.33,WSW,238,0.0,1.0,92,0.00,CLR,CLR,0.00,WeatherDisplay:10.37,2013-07-05 01:00:00,
2013-07-05 02:10:00,51.9,49.6,30.34,WSW,244,1.0,3.0,92,0.00,CLR,CLR,0.00,WeatherDisplay:10.37,2013-07-05 01:10:00,
2013-07-05 02:20:00,51.5,48.9,30.34,West,269,1.0,3.0,91,0.00,CLR,CLR,0.00,WeatherDisplay:10.37,2013-07-05 01:20:00,
2013-07-05 02:30:00,50.9,48.4,30.34,West,261,1.0,3.0,91,0.00,CLR,CLR,0.00,WeatherDisplay:10.37,2013-07-05 01:30:00,
2013-07-05 02:40:00,50.5,48.0,30.34,West,270,0.0,0.0,91,0.00,CLR,CLR,0.00,WeatherDisplay:10.37,2013-07-05 01:40:00,
2013-07-05 02:50:00,50.2,47.7,30.34,East,90,0.0,0.0,91,0.00,CLR,CLR,0.00,WeatherDisplay:10.37,2013-07-05 01:50:00,
2013-07-05 03:00:00,49.5,47.0,30.34,East,90,0.0,0.0,91,0.00,CLR,CLR,0.00,WeatherDisplay:10.37,2013-07-05 02:00:00,
2013-07-05 03:10:00,49.5,46.9,30.34,East,90,0.0,0.0,91,0.00,CLR,CLR,0.00,WeatherDisplay:10.37,2013-07-05 02:10:00,
2013-07-05 03:20:00,49.5,47.2,30.34,East,90,0.0,0.0,92,0.00,CLR,CLR,0.00,WeatherDisplay:10.37,2013-07-05 02:20:00,
2013-07-05 03:30:00,48.9,46.7,30.34,East,90,0.0,0.0,92,0.00,CLR,CLR,0.00,WeatherDisplay:10.37,2013-07-05 02:30:00,
2013-07-05 03:40:00,48.7,46.5,30.34,East,90,0.0,0.0,92,0.00,CLR,CLR,0.00,WeatherDisplay:10.37,2013-07-05 02:40:00,
2013-07-05 03:50:00,48.6,46.3,30.35,East,90,0.0,0.0,92,0.00,CLR,CLR,0.00,WeatherDisplay:10.37,2013-07-05 02:50:00,
2013-07-05 04:00:00,48.2,46.0,30.35,East,90,0.0,0.0,92,0.00,CLR,CLR,0.00,WeatherDisplay:10.37,2013-07-05 03:00:00,
2013-07-05 04:10:00,48.3,46.1,30.36,East,94,0.0,1.0,92,0.00,CLR,CLR,0.00,WeatherDisplay:10.37,2013-07-05 03:10:00,
2013-07-05 04:20:00,48.4,46.4,30.36,SSE,147,0.0,2.0,93,0.00,CLR,CLR,0.00,WeatherDisplay:10.37,2013-07-05 03:20:00,
2013-07-05 04:30:00,48.0,45.8,30.37,SSW,204,0.0,0.0,92,0.00,CLR,CLR,0.00,WeatherDisplay:10.37,2013-07-05 03:30:00,
2013-07-05 04:40:00,47.7,45.7,30.37,WSW,258,1.0,2.0,93,0.00,CLR,CLR,0.00,WeatherDisplay:10.37,2013-07-05 03:40:00,
2013-07-05 04:50:00,47.4,45.5,30.37,SW,231,0.0,1.0,93,0.00,CLR,CLR,0.00,WeatherDisplay:10.37,2013-07-05 03:50:00,
2013-07-05 05:00:00,47.3,45.3,30.37,South,180,0.0,1.0,93,0.00,CLR,CLR,0.00,WeatherDisplay:10.37,2013-07-05 04:00:00,
2013-07-05 05:10:00,47.1,45.2,30.38,South,180,0.0,0.0,93,0.00,CLR,CLR,0.00,WeatherDisplay:10.37,2013-07-05 04:10:00,
2013-07-05 05:20:00,47.3,45.6,30.38,South,180,0.0,0.0,94,0.00,CLR,CLR,0.00,WeatherDisplay:10.37,2013-07-05 04:20:00,
2013-07-05 05:30:00,46.9,45.0,30.38,South,180,0.0,0.0,93,0.00,CLR,CLR,0.00,WeatherDisplay:10.37,2013-07-05 04:30:00,
2013-07-05 05:40:00,46.9,45.3,30.38,South,180,0.0,0.0,94,0.00,CLR,CLR,0.00,WeatherDisplay:10.37,2013-07-05 04:40:00,
2013-07-05 05:50:00,47.2,45.6,30.38,SW,224,0.0,2.0,94,0.00,CLR,CLR,0.00,WeatherDisplay:10.37,2013-07-05 04:50:00,
2013-07-05 06:00:00,48.0,46.3,30.38,WNW,289,1.0,2.0,94,0.00,CLR,CLR,0.00,WeatherDisplay:10.37,2013-07-05 05:00:00,
2013-07-05 06:10:00,48.2,46.8,30.39,West,270,1.0,2.0,95,0.00,CLR,CLR,0.00,WeatherDisplay:10.37,2013-07-05 05:10:00,
2013-07-05 06:20:00,49.9,48.6,30.39,West,270,0.0,1.0,95,0.00,CLR,CLR,0.00,WeatherDisplay:10.37,2013-07-05 05:20:00,
2013-07-05 06:30:00,50.9,49.5,30.38,West,270,0.0,1.0,95,0.00,CLR,CLR,0.00,WeatherDisplay:10.37,2013-07-05 05:30:00,
2013-07-05 06:40:00,51.6,50.5,30.38,SSE,159,1.0,2.0,96,0.00,CLR,CLR,0.00,WeatherDisplay:10.37,2013-07-05 05:40:00,
2013-07-05 06:50:00,52.5,51.4,30.40,South,189,1.0,2.0,96,0.00,CLR,CLR,0.00,WeatherDisplay:10.37,2013-07-05 05:50:00,
2013-07-05 07:00:00,53.4,52.3,30.40,West,264,1.0,3.0,96,0.00,CLR,CLR,0.00,WeatherDisplay:10.37,2013-07-05 06:00:00,
2013-07-05 07:10:00,54.4,53.0,30.40,WSW,250,1.0,3.0,95,0.00,CLR,CLR,0.00,WeatherDisplay:10.37,2013-07-05 06:10:00,
2013-07-05 07:20:00,55.6,54.2,30.40,SSW,192,1.0,2.0,95,0.00,CLR,CLR,0.00,WeatherDisplay:10.37,2013-07-05 06:20:00,
2013-07-05 07:30:00,56.8,55.1,30.40,West,260,1.0,5.0,94,0.00,CLR,CLR,0.00,WeatherDisplay:10.37,2013-07-05 06:30:00,
2013-07-05 07:40:00,58.1,55.8,30.40,West,267,1.0,3.0,92,0.00,CLR,CLR,0.00,WeatherDisplay:10.37,2013-07-05 06:40:00,
2013-07-05 07:50:00,59.1,55.6,30.41,WSW,243,2.0,5.0,88,0.00,CLR,CLR,0.00,WeatherDisplay:10.37,2013-07-05 06:50:00,
2013-07-05 08:00:00,59.9,55.1,30.41,West,271,3.0,6.0,84,0.00,CLR,CLR,0.00,WeatherDisplay:10.37,2013-07-05 07:00:00,
2013-07-05 08:10:00,60.4,55.2,30.42,WSW,248,2.0,6.0,83,0.00,CLR,CLR,0.00,WeatherDisplay:10.37,2013-07-05 07:10:00,
2013-07-05 08:20:00,60.9,54.7,30.42,WSW,254,5.0,7.0,80,0.00,CLR,CLR,0.00,WeatherDisplay:10.37,2013-07-05 07:20:00,
2013-07-05 08:30:00,61.2,54.7,30.42,West,259,5.0,6.0,79,0.00,CLR,CLR,0.00,WeatherDisplay:10.37,2013-07-05 07:30:00,
2013-07-05 08:40:00,61.3,53.7,30.42,West,265,2.0,5.0,76,0.00,CLR,CLR,0.00,WeatherDisplay:10.37,2013-07-05 07:40:00,
2013-07-05 08:50:00,61.3,54.4,30.43,WNW,282,3.0,7.0,78,0.00,CLR,CLR,0.00,WeatherDisplay:10.37,2013-07-05 07:50:00,
2013-07-05 09:00:00,61.3,53.7,30.43,NW,310,5.0,7.0,76,0.00,CLR,CLR,0.00,WeatherDisplay:10.37,2013-07-05 08:00:00,
2013-07-05 09:10:00,61.3,53.3,30.44,West,264,5.0,8.0,75,0.00,CLR,CLR,0.00,WeatherDisplay:10.37,2013-07-05 08:10:00,
2013-07-05 09:20:00,61.4,54.2,30.44,West,263,5.0,9.0,77,0.00,CLR,CLR,0.00,WeatherDisplay:10.37,2013-07-05 08:20:00,
2013-07-05 09:50:00,62.4,53.3,30.44,West,273,5.0,8.0,72,0.00,CLR,CLR,0.00,WeatherDisplay:10.37,2013-07-05 08:50:00,
2013-07-05 10:00:00,62.8,54.0,30.44,West,281,5.0,8.0,73,0.00,CLR,CLR,0.00,WeatherDisplay:10.37,2013-07-05 09:00:00,
2013-07-05 10:10:00,62.8,53.6,30.45,WSW,238,5.0,8.0,72,0.00,CLR,CLR,0.00,WeatherDisplay:10.37,2013-07-05 09:10:00,
2013-07-05 10:20:00,62.6,53.1,30.45,West,267,6.0,8.0,71,0.00,CLR,CLR,0.00,WeatherDisplay:10.37,2013-07-05 09:20:00,
2013-07-05 10:30:00,63.3,53.7,30.46,NW,305,5.0,8.0,71,0.00,CLR,CLR,0.00,WeatherDisplay:10.37,2013-07-05 09:30:00,
2013-07-05 10:40:00,63.5,53.9,30.46,West,271,5.0,7.0,71,0.00,CLR,CLR,0.00,WeatherDisplay:10.37,2013-07-05 09:40:00,
2013-07-05 10:50:00,63.9,54.3,30.47,WSW,239,5.0,7.0,71,0.00,CLR,CLR,0.00,WeatherDisplay:10.37,2013-07-05 09:50:00,
2013-07-05 11:00:00,63.7,53.7,30.47,West,277,5.0,8.0,70,0.00,CLR,CLR,0.00,WeatherDisplay:10.37,2013-07-05 10:00:00,
2013-07-05 11:10:00,64.2,54.2,30.46,WNW,292,6.0,9.0,70,0.00,CLR,CLR,0.00,WeatherDisplay:10.37,2013-07-05 10:10:00,
2013-07-05 11:40:00,63.5,54.7,30.47,West,280,5.0,7.0,73,0.00,CLR,CLR,0.00,WeatherDisplay:10.37,2013-07-05 10:40:00,
2013-07-05 11:50:00,64.4,54.4,30.47,West,262,3.0,7.0,70,0.00,CLR,CLR,0.00,WeatherDisplay:10.37,2013-07-05 10:50:00,
2013-07-05 12:00:00,64.2,54.2,30.47,West,271,3.0,5.0,70,0.00,CLR,CLR,0.00,WeatherDisplay:10.37,2013-07-05 11:00:00,
2013-07-05 12:10:00,64.2,54.6,30.46,West,272,3.0,7.0,71,0.00,CLR,CLR,0.00,WeatherDisplay:10.37,2013-07-05 11:10:00,
2013-07-05 12:20:00,64.6,54.9,30.46,WNW,293,3.0,7.0,71,0.00,CLR,CLR,0.00,WeatherDisplay:10.37,2013-07-05 11:20:00,
2013-07-05 12:30:00,64.4,54.8,30.47,West,277,5.0,7.0,71,0.00,CLR,CLR,0.00,WeatherDisplay:10.37,2013-07-05 11:30:00,
2013-07-05 12:40:00,64.9,55.3,30.47,NW,309,3.0,8.0,71,0.00,CLR,CLR,0.00,WeatherDisplay:10.37,2013-07-05 11:40:00,
2013-07-05 12:50:00,64.9,55.7,30.48,West,278,5.0,9.0,72,0.00,CLR,CLR,0.00,WeatherDisplay:10.37,2013-07-05 11:50:00,
2013-07-05 13:00:00,65.1,54.3,30.48,West,268,3.0,6.0,68,0.00,CLR,CLR,0.00,WeatherDisplay:10.37,2013-07-05 12:00:00,
2013-07-05 13:10:00,65.3,54.9,30.49,West,273,3.0,8.0,69,0.00,CLR,CLR,0.00,WeatherDisplay:10.37,2013-07-05 12:10:00,
2013-07-05 13:20:00,65.1,54.7,30.49,WSW,252,5.0,7.0,69,0.00,CLR,CLR,0.00,WeatherDisplay:10.37,2013-07-05 12:20:00,
2013-07-05 13:30:00,64.9,54.5,30.50,WSW,250,3.0,7.0,69,0.00,CLR,CLR,0.00,WeatherDisplay:10.37,2013-07-05 12:30:00,
2013-07-05 13:40:00,65.3,54.9,30.50,WSW,257,3.0,6.0,69,0.00,CLR,CLR,0.00,WeatherDisplay:10.37,2013-07-05 12:40:00,
2013-07-05 13:50:00,65.7,55.6,30.49,WNW,293,2.0,6.0,70,0.00,CLR,CLR,0.00,WeatherDisplay:10.37,2013-07-05 12:50:00,
2013-07-05 14:10:00,65.9,56.6,30.51,WNW,295,3.0,6.0,72,0.00,CLR,CLR,0.00,WeatherDisplay:10.37,2013-07-05 13:10:00,
2013-07-05 14:30:00,66.5,56.4,30.51,WNW,284,3.0,7.0,70,0.00,CLR,CLR,0.00,WeatherDisplay:10.37,2013-07-05 13:30:00,
2013-07-05 14:40:00,67.0,56.5,30.51,WNW,291,3.0,8.0,69,0.00,CLR,CLR,0.00,WeatherDisplay:10.37,2013-07-05 13:40:00,
2013-07-05 14:50:00,67.2,57.1,30.51,West,261,2.0,8.0,70,0.00,CLR,CLR,0.00,WeatherDisplay:10.37,2013-07-05 13:50:00,
2013-07-05 15:10:00,67.5,56.9,30.51,WSW,251,3.0,6.0,69,0.00,CLR,CLR,0.00,WeatherDisplay:10.37,2013-07-05 14:10:00,
2013-07-05 15:20:00,67.7,55.9,30.51,WNW,292,3.0,7.0,66,0.00,CLR,CLR,0.00,WeatherDisplay:10.37,2013-07-05 14:20:00,
2013-07-05 15:30:00,67.6,56.3,30.52,WNW,291,2.0,5.0,67,0.00,CLR,CLR,0.00,WeatherDisplay:10.37,2013-07-05 14:30:00,
2013-07-05 15:40:00,68.0,57.0,30.52,WSW,258,3.0,7.0,68,0.00,CLR,CLR,0.00,WeatherDisplay:10.37,2013-07-05 14:40:00,
2013-07-05 15:50:00,67.3,57.2,30.51,WNW,296,2.0,5.0,70,0.00,CLR,CLR,0.00,WeatherDisplay:10.37,2013-07-05 14:50:00,
2013-07-05 16:00:00,68.2,55.9,30.51,WNW,285,2.0,6.0,65,0.00,CLR,CLR,0.00,WeatherDisplay:10.37,2013-07-05 15:00:00,
2013-07-05 16:10:00,68.0,55.8,30.51,WNW,292,2.0,6.0,65,0.00,CLR,CLR,0.00,WeatherDisplay:10.37,2013-07-05 15:10:00,
2013-07-05 16:20:00,68.5,57.5,30.51,WSW,257,2.0,5.0,68,0.00,CLR,CLR,0.00,WeatherDisplay:10.37,2013-07-05 15:20:00,
2013-07-05 16:30:00,68.2,56.0,30.50,WNW,283,2.0,5.0,65,0.00,CLR,CLR,0.00,WeatherDisplay:10.37,2013-07-05 15:30:00,
2013-07-05 16:40:00,68.5,56.7,30.50,West,266,2.0,6.0,66,0.00,CLR,CLR,0.00,WeatherDisplay:10.37,2013-07-05 15:40:00,
2013-07-05 16:50:00,68.4,56.2,30.51,WNW,291,3.0,6.0,65,0.00,CLR,CLR,0.00,WeatherDisplay:10.37,2013-07-05 15:50:00,
2013-07-05 17:00:00,68.2,56.0,30.51,NW,309,2.0,5.0,65,0.00,CLR,CLR,0.00,WeatherDisplay:10.37,2013-07-05 16:00:00,
2013-07-05 17:10:00,68.1,55.9,30.50,NNW,333,1.0,5.0,65,0.00,CLR,CLR,0.00,WeatherDisplay:10.37,2013-07-05 16:10:00,
2013-07-05 17:20:00,68.1,55.9,30.50,NW,304,2.0,4.0,65,0.00,CLR,CLR,0.00,WeatherDisplay:10.37,2013-07-05 16:20:00,
2013-07-05 17:30:00,68.2,56.0,30.49,WNW,301,2.0,3.0,65,0.00,CLR,CLR,0.00,WeatherDisplay:10.37,2013-07-05 16:30:00,
2013-07-05 17:40:00,68.5,56.3,30.49,West,279,2.0,6.0,65,0.00,CLR,CLR,0.00,WeatherDisplay:10.37,2013-07-05 16:40:00,
2013-07-05 17:50:00,68.4,56.2,30.49,NNW,342,2.0,6.0,65,0.00,CLR,CLR,0.00,WeatherDisplay:10.37,2013-07-05 16:50:00,
2013-07-05 18:00:00,68.0,55.8,30.49,WNW,282,1.0,3.0,65,0.00,CLR,CLR,0.00,WeatherDisplay:10.37,2013-07-05 17:00:00,
2013-07-05 18:10:00,68.2,56.0,30.49,NW,304,2.0,5.0,65,0.00,CLR,CLR,0.00,WeatherDisplay:10.37,2013-07-05 17:10:00,
2013-07-05 18:20:00,68.5,56.3,30.49,NW,325,2.0,5.0,65,0.00,CLR,CLR,0.00,WeatherDisplay:10.37,2013-07-05 17:20:00,
2013-07-05 18:30:00,68.5,55.9,30.49,NNW,348,2.0,5.0,64,0.00,CLR,CLR,0.00,WeatherDisplay:10.37,2013-07-05 17:30:00,
2013-07-05 18:40:00,68.8,56.5,30.49,North,11,1.0,3.0,65,0.00,CLR,CLR,0.00,WeatherDisplay:10.37,2013-07-05 17:40:00,
2013-07-05 18:50:00,68.8,56.1,30.49,NNE,14,2.0,3.0,64,0.00,CLR,CLR,0.00,WeatherDisplay:10.37,2013-07-05 17:50:00,
2013-07-05 19:00:00,68.5,56.3,30.49,NNE,33,1.0,2.0,65,0.00,CLR,CLR,0.00,WeatherDisplay:10.37,2013-07-05 18:00:00,
2013-07-05 19:10:00,68.4,56.2,30.48,North,1,1.0,3.0,65,0.00,CLR,CLR,0.00,WeatherDisplay:10.37,2013-07-05 18:10:00,
2013-07-05 19:20:00,68.1,56.7,30.48,NW,326,1.0,3.0,67,0.00,CLR,CLR,0.00,WeatherDisplay:10.37,2013-07-05 18:20:00,
2013-07-05 19:30:00,67.8,56.8,30.48,North,1,1.0,2.0,68,0.00,CLR,CLR,0.00,WeatherDisplay:10.37,2013-07-05 18:30:00,
2013-07-05 19:40:00,67.2,56.6,30.48,North,360,1.0,2.0,69,0.00,CLR,CLR,0.00,WeatherDisplay:10.37,2013-07-05 18:40:00,
2013-07-05 19:50:00,66.6,56.1,30.49,North,3,1.0,3.0,69,0.00,CLR,CLR,0.00,WeatherDisplay:10.37,2013-07-05 18:50:00,
2013-07-05 20:00:00,66.4,56.3,30.49,North,5,1.0,2.0,70,0.00,CLR,CLR,0.00,WeatherDisplay:10.37,2013-07-05 19:00:00,
2013-07-05 20:10:00,65.9,55.8,30.48,NNE,16,1.0,2.0,70,0.00,CLR,CLR,0.00,WeatherDisplay:10.37,2013-07-05 19:10:00,
2013-07-05 20:20:00,65.2,55.5,30.48,NNW,343,1.0,3.0,71,0.00,CLR,CLR,0.00,WeatherDisplay:10.37,2013-07-05 19:20:00,
2013-07-05 20:30:00,64.3,55.1,30.48,North,356,2.0,3.0,72,0.00,CLR,CLR,0.00,WeatherDisplay:10.37,2013-07-05 19:30:00,
2013-07-05 20:40:00,63.4,54.6,30.48,North,7,1.0,5.0,73,0.00,CLR,CLR,0.00,WeatherDisplay:10.37,2013-07-05 19:40:00,
2013-07-05 20:50:00,62.6,54.2,30.48,North,355,0.0,2.0,74,0.00,CLR,CLR,0.00,WeatherDisplay:10.37,2013-07-05 19:50:00,
2013-07-05 21:00:00,61.8,53.8,30.48,North,358,0.0,2.0,75,0.00,CLR,CLR,0.00,WeatherDisplay:10.37,2013-07-05 20:00:00,
2013-07-05 21:10:00,61.1,53.5,30.48,NNW,339,0.0,2.0,76,0.00,CLR,CLR,0.00,WeatherDisplay:10.37,2013-07-05 20:10:00,
2013-07-05 21:20:00,60.5,52.9,30.48,NNW,348,0.0,1.0,76,0.00,CLR,CLR,0.00,WeatherDisplay:10.37,2013-07-05 20:20:00,
2013-07-05 21:30:00,59.9,52.7,30.48,North,359,0.0,1.0,77,0.00,CLR,CLR,0.00,WeatherDisplay:10.37,2013-07-05 20:30:00,
2013-07-05 21:40:00,59.2,52.3,30.48,North,353,0.0,3.0,78,0.00,CLR,CLR,0.00,WeatherDisplay:10.37,2013-07-05 20:40:00,
2013-07-05 21:50:00,58.8,52.3,30.48,NNW,348,1.0,3.0,79,0.00,CLR,CLR,0.00,WeatherDisplay:10.37,2013-07-05 20:50:00,
2013-07-05 22:00:00,58.4,52.2,30.48,North,355,0.0,0.0,80,0.00,CLR,CLR,0.00,WeatherDisplay:10.37,2013-07-05 21:00:00,
2013-07-05 22:10:00,57.9,51.8,30.48,North,351,0.0,0.0,80,0.00,CLR,CLR,0.00,WeatherDisplay:10.37,2013-07-05 21:10:00,
2013-07-05 22:20:00,57.3,51.5,30.48,North,350,0.0,1.0,81,0.00,CLR,CLR,0.00,WeatherDisplay:10.37,2013-07-05 21:20:00,
2013-07-05 22:30:00,56.9,51.5,30.48,NNW,337,0.0,0.0,82,0.00,CLR,CLR,0.00,WeatherDisplay:10.37,2013-07-05 21:30:00,
2013-07-05 22:40:00,56.6,51.1,30.48,NNW,344,0.0,1.0,82,0.00,CLR,CLR,0.00,WeatherDisplay:10.37,2013-07-05 21:40:00,
2013-07-05 22:50:00,56.6,51.5,30.48,North,357,0.0,1.0,83,0.00,CLR,CLR,0.00,WeatherDisplay:10.37,2013-07-05 21:50:00,
2013-07-05 23:00:00,56.3,51.2,30.48,North,355,0.0,2.0,83,0.00,CLR,CLR,0.00,WeatherDisplay:10.37,2013-07-05 22:00:00,
2013-07-05 23:10:00,55.9,51.2,30.48,NNW,345,0.0,2.0,84,0.00,CLR,CLR,0.00,WeatherDisplay:10.37,2013-07-05 22:10:00,
2013-07-05 23:20:00,55.9,51.2,30.48,NNW,338,1.0,3.0,84,0.00,CLR,CLR,0.00,WeatherDisplay:10.37,2013-07-05 22:20:00,
2013-07-05 23:30:00,56.1,51.4,30.48,NW,320,2.0,3.0,84,0.00,CLR,CLR,0.00,WeatherDisplay:10.37,2013-07-05 22:30:00,
2013-07-05 23:40:00,56.2,51.4,30.48,North,354,1.0,2.0,84,0.00,CLR,CLR,0.00,WeatherDisplay:10.37,2013-07-05 22:40:00,
2013-07-05 23:50:00,55.6,50.8,30.48,North,358,0.0,1.0,84,0.00,CLR,CLR,0.00,WeatherDisplay:10.37,2013-07-05 22:50:00,